Time;durP1;ratioP1;P1;durP2;ratioP2;P2;SDS_P1;SDS_P2;PMS_P1;PMS_P2;Temp;Humidity;BMP_temperature;BMP_pressure;BME280_temperature;BME280_humidity;BME280_pressure;Samples;Min_cycle;Max_cycle;Signal;HPM_P1;HPM_P2
2023/05/10 00:00:38;;;;;;;1.47;0.20;;;;;;;16.75;80.91;99793.72;5073282;28;20411;-74
2023/05/10 00:03:06;;;;;;;1.00;0.30;;;;;;;16.78;80.72;99786.81;5081019;28;20432;-74
2023/05/10 00:05:32;;;;;;;0.30;0.30;;;;;;;16.80;80.18;99795.53;5087536;28;20742;-74
2023/05/10 00:07:57;;;;;;;0.30;0.20;;;;;;;16.80;79.98;99788.13;5062168;28;20494;-75
2023/05/10 00:10:22;;;;;;;0.40;0.13;;;;;;;16.68;80.65;99793.28;5082546;28;20414;-74
2023/05/10 00:12:48;;;;;;;1.10;0.30;;;;;;;16.69;80.85;99794.94;5091077;28;20389;-74
2023/05/10 00:15:13;;;;;;;3.70;0.27;;;;;;;16.70;80.79;99791.06;5064610;28;20400;-74
2023/05/10 00:17:38;;;;;;;0.40;0.40;;;;;;;16.69;80.40;99794.13;5044798;28;20422;-75
2023/05/10 00:20:04;;;;;;;1.40;0.40;;;;;;;16.54;81.16;99795.97;5076807;28;20423;-75
2023/05/10 00:22:30;;;;;;;0.47;0.30;;;;;;;16.44;81.54;99793.41;5061007;28;20428;-74
2023/05/10 00:24:55;;;;;;;2.70;0.40;;;;;;;16.50;81.63;99797.66;5060388;28;20408;-74
2023/05/10 00:27:21;;;;;;;0.80;0.20;;;;;;;16.61;80.95;99798.34;5061296;28;20419;-74
2023/05/10 00:29:46;;;;;;;1.17;0.20;;;;;;;16.59;80.73;99797.84;5060289;28;20775;-75
2023/05/10 00:32:11;;;;;;;2.10;0.20;;;;;;;16.43;81.35;99791.78;5044805;28;20528;-75
2023/05/10 00:34:36;;;;;;;3.93;0.30;;;;;;;16.22;82.21;99800.63;5072554;28;20438;-75
2023/05/10 00:37:02;;;;;;;0.40;0.30;;;;;;;16.30;82.23;99806.22;5062322;28;20412;-75
2023/05/10 00:39:28;;;;;;;2.10;0.30;;;;;;;16.34;82.17;99804.50;5061046;28;20411;-74
2023/05/10 00:41:53;;;;;;;1.30;0.38;;;;;;;16.37;82.07;99817.59;5062359;28;20463;-74
2023/05/10 00:44:19;;;;;;;0.60;0.33;;;;;;;16.31;82.25;99810.56;5041874;28;20446;-75
2023/05/10 00:46:45;;;;;;;1.53;0.30;;;;;;;16.36;82.58;99807.78;5061564;28;20409;-74
2023/05/10 00:49:11;;;;;;;2.25;0.50;;;;;;;16.39;82.16;99809.91;5044282;28;20399;-75
2023/05/10 00:51:36;;;;;;;1.70;0.22;;;;;;;16.43;82.03;99804.66;5059982;28;20408;-75
2023/05/10 00:54:02;;;;;;;0.60;0.33;;;;;;;16.48;81.95;99805.38;5061897;28;20520;-75
2023/05/10 00:56:29;;;;;;;0.70;0.50;;;;;;;16.48;81.86;99808.09;5050292;28;20906;-75
2023/05/10 00:58:55;;;;;;;0.50;0.50;;;;;;;16.42;82.27;99803.03;5066522;28;20406;-75
2023/05/10 01:01:20;;;;;;;0.40;0.40;;;;;;;16.39;82.20;99806.34;5063139;28;20408;-75
2023/05/10 01:03:46;;;;;;;0.37;0.37;;;;;;;16.32;82.62;99804.00;5060524;28;20490;-75
2023/05/10 01:06:12;;;;;;;0.30;0.30;;;;;;;16.38;82.42;99808.28;5061508;28;20498;-74
2023/05/10 01:08:38;;;;;;;0.70;0.40;;;;;;;16.33;82.49;99802.09;5042447;28;20502;-75
2023/05/10 01:11:03;;;;;;;0.45;0.40;;;;;;;16.38;82.61;99805.53;5061112;28;20408;-75
2023/05/10 01:13:32;;;;;;;0.40;0.40;;;;;;;16.38;82.21;99802.81;5060856;28;20794;-75
2023/05/10 01:15:58;;;;;;;0.50;0.50;;;;;;;16.33;82.39;99805.63;5061900;28;20465;-75
2023/05/10 01:18:24;;;;;;;3.50;0.55;;;;;;;16.26;82.73;99807.13;5063013;28;20400;-75
2023/05/10 01:21:07;;;;;;;0.40;0.40;;;;;;;16.30;82.89;99800.75;5066155;28;20498;-75
2023/05/10 01:23:41;;;;;;;2.97;0.60;;;;;;;16.34;82.30;99790.03;5060325;28;20411;-75
2023/05/10 01:26:22;;;;;;;0.52;0.52;;;;;;;16.33;82.25;99796.63;5060677;28;20404;-75
2023/05/10 01:28:51;;;;;;;0.50;0.50;;;;;;;16.28;82.21;99800.25;5059883;28;20413;-75
2023/05/10 01:31:29;;;;;;;0.80;0.80;;;;;;;16.27;82.47;99797.81;5057955;28;20414;-75
2023/05/10 01:34:12;;;;;;;1.10;0.60;;;;;;;16.29;82.53;99796.41;5060896;28;20956;-75
2023/05/10 01:37:05;;;;;;;2.00;0.52;;;;;;;16.30;82.51;99798.00;5060820;28;20439;-75
2023/05/10 01:39:49;;;;;;;4.10;0.50;;;;;;;16.30;82.62;99798.00;5064758;28;20400;-75
2023/05/10 01:42:19;;;;;;;1.10;1.00;;;;;;;16.31;82.72;99798.81;5064468;28;20906;-75
2023/05/10 01:44:54;;;;;;;0.75;0.75;;;;;;;16.26;82.90;99799.75;5062813;28;20461;-75
2023/05/10 01:47:30;;;;;;;1.83;0.80;;;;;;;16.31;82.68;99801.56;5045866;28;20951;-75
2023/05/10 01:50:01;;;;;;;0.70;0.70;;;;;;;16.36;82.72;99805.03;5063522;28;20507;-75
2023/05/10 01:52:32;;;;;;;1.30;0.80;;;;;;;16.26;83.02;99799.75;5064159;28;22796;-74
2023/05/10 01:55:05;;;;;;;1.33;0.90;;;;;;;16.36;82.67;99805.03;5063643;28;20407;-75
2023/05/10 01:57:34;;;;;;;1.13;1.13;;;;;;;16.49;81.90;99798.81;5062354;28;20405;-75
2023/05/10 02:00:03;;;;;;;1.65;1.15;;;;;;;16.53;81.54;99808.00;5074756;28;20485;-75
2023/05/10 02:02:33;;;;;;;1.50;1.40;;;;;;;16.48;81.80;99810.03;5064490;28;20464;-75
2023/05/10 02:04:59;;;;;;;2.08;1.33;;;;;;;16.36;82.44;99804.22;5063730;28;20465;-75
2023/05/10 02:07:26;;;;;;;1.27;1.27;;;;;;;16.41;82.32;99801.41;5038274;28;20410;-75
2023/05/10 02:09:52;;;;;;;2.57;1.30;;;;;;;16.44;82.13;99800.78;5063397;28;20423;-75
2023/05/10 02:12:18;;;;;;;1.40;1.30;;;;;;;16.36;82.38;99805.03;5063785;28;20572;-75
2023/05/10 02:14:45;;;;;;;1.20;1.20;;;;;;;16.35;82.53;99811.63;5062619;28;20407;-76
2023/05/10 02:17:11;;;;;;;1.02;1.02;;;;;;;16.32;82.50;99816.88;5063613;28;20824;-75
2023/05/10 02:19:40;;;;;;;1.23;1.20;;;;;;;16.28;82.85;99813.09;5063920;28;20444;-75
2023/05/10 02:22:08;;;;;;;2.25;1.38;;;;;;;16.29;82.60;99815.53;5070598;28;20411;-75
2023/05/10 02:24:34;;;;;;;1.77;1.20;;;;;;;16.29;82.91;99822.94;5074702;28;20472;-75
2023/05/10 02:27:02;;;;;;;1.50;1.40;;;;;;;16.33;82.52;99830.25;5088259;28;20374;-75
2023/05/10 02:29:28;;;;;;;1.90;1.23;;;;;;;16.35;82.59;99822.56;5078895;28;20801;-76
2023/05/10 02:31:55;;;;;;;1.80;1.70;;;;;;;16.32;82.59;99825.88;5093031;28;20395;-75
2023/05/10 02:34:25;;;;;;;1.42;1.40;;;;;;;16.31;82.40;99828.91;5083365;28;20384;-75
2023/05/10 02:36:52;;;;;;;1.30;1.20;;;;;;;16.31;82.54;99826.16;5088015;28;20896;-75
2023/05/10 02:39:19;;;;;;;4.25;1.52;;;;;;;16.32;82.51;99828.63;5091693;28;20391;-75
2023/05/10 02:41:46;;;;;;;1.10;1.10;;;;;;;16.33;82.46;99829.44;5080735;28;20420;-76
2023/05/10 02:44:14;;;;;;;1.50;1.02;;;;;;;16.27;82.64;99822.44;5082327;28;20421;-75
2023/05/10 02:46:40;;;;;;;1.23;1.10;;;;;;;16.32;82.38;99836.81;5065256;28;20408;-75
2023/05/10 02:49:06;;;;;;;2.27;1.50;;;;;;;16.24;82.53;99821.06;5061706;28;20770;-75
2023/05/10 02:51:34;;;;;;;1.30;1.30;;;;;;;16.24;82.39;99825.72;5063680;28;21121;-75
2023/05/10 02:54:29;;;;;;;1.60;1.50;;;;;;;16.08;82.88;99825.16;5061584;28;20408;-75
2023/05/10 02:56:59;;;;;;;1.30;1.20;;;;;;;16.06;82.99;99827.38;5061828;28;20415;-75
2023/05/10 02:59:24;;;;;;;1.98;1.25;;;;;;;15.97;83.32;99824.47;5061566;28;20408;-75
2023/05/10 03:01:49;;;;;;;1.90;1.20;;;;;;;16.05;83.14;99831.22;5061840;28;20408;-75
2023/05/10 03:04:15;;;;;;;1.27;1.17;;;;;;;16.04;82.74;99821.38;5084065;28;20402;-75
2023/05/10 03:06:41;;;;;;;1.47;1.43;;;;;;;15.99;82.70;99821.47;5083601;28;20879;-76
2023/05/10 03:09:09;;;;;;;1.83;1.73;;;;;;;15.94;82.86;99824.25;5063327;28;20497;-75
2023/05/10 03:11:49;;;;;;;1.50;1.50;;;;;;;15.84;83.19;99824.44;5062439;28;20443;-75
2023/05/10 03:14:45;;;;;;;3.60;1.77;;;;;;;15.86;83.27;99831.22;5039631;28;20732;-76
2023/05/10 03:17:19;;;;;;;2.88;1.42;;;;;;;15.82;83.29;99829.38;5062794;28;20403;-75
2023/05/10 03:19:56;;;;;;;2.93;1.53;;;;;;;15.78;83.08;99823.66;5063601;28;20584;-76
2023/05/10 03:22:26;;;;;;;2.13;1.70;;;;;;;15.78;83.52;99831.06;5058474;28;20426;-75
2023/05/10 03:24:55;;;;;;;1.45;1.35;;;;;;;15.88;82.92;99833.66;5060020;28;20417;-76
2023/05/10 03:27:23;;;;;;;2.28;1.60;;;;;;;15.83;83.10;99836.47;5066565;28;20408;-75
2023/05/10 03:29:50;;;;;;;1.75;1.45;;;;;;;15.80;82.93;99832.41;5075342;28;22587;-75
2023/05/10 03:32:16;;;;;;;1.80;1.50;;;;;;;15.79;83.18;99843.63;5070487;28;20905;-75
2023/05/10 03:34:42;;;;;;;1.30;1.30;;;;;;;15.73;83.21;99839.31;5074446;28;20431;-75
2023/05/10 03:37:08;;;;;;;1.60;1.33;;;;;;;15.66;83.57;99850.63;5045788;28;20850;-75
2023/05/10 03:39:33;;;;;;;2.40;1.23;;;;;;;15.69;83.42;99849.22;5055197;28;20442;-75
2023/05/10 03:41:58;;;;;;;1.70;1.60;;;;;;;15.77;82.79;99845.84;5087693;28;20756;-75
2023/05/10 03:44:23;;;;;;;1.70;1.40;;;;;;;15.74;82.66;99855.41;5074829;28;20398;-75
2023/05/10 03:46:49;;;;;;;3.00;1.23;;;;;;;15.72;83.08;99859.53;5067750;28;20491;-75
2023/05/10 03:49:14;;;;;;;1.50;1.10;;;;;;;15.77;83.03;99854.84;5070496;28;20399;-75
2023/05/10 03:51:39;;;;;;;2.13;1.20;;;;;;;15.85;82.72;99856.91;5069086;28;20869;-75
2023/05/10 03:54:04;;;;;;;1.50;1.15;;;;;;;15.86;82.46;99861.28;5072806;28;20416;-75
2023/05/10 03:56:30;;;;;;;1.80;1.37;;;;;;;15.75;82.90;99867.16;5070577;28;20458;-75
2023/05/10 03:58:55;;;;;;;2.47;2.27;;;;;;;15.73;83.34;99869.38;5073321;28;20408;-75
2023/05/10 04:01:20;;;;;;;3.55;3.25;;;;;;;15.71;83.51;99868.88;5075289;28;20418;-75
2023/05/10 04:03:46;;;;;;;1.63;1.60;;;;;;;15.79;83.26;99863.56;5086264;28;20412;-75
2023/05/10 04:06:11;;;;;;;1.30;1.30;;;;;;;15.87;82.95;99867.56;5061552;28;20435;-75
2023/05/10 04:08:37;;;;;;;3.13;1.25;;;;;;;15.85;82.79;99864.28;5045312;28;20771;-76
2023/05/10 04:11:11;;;;;;;1.17;1.17;;;;;;;15.82;82.90;99862.97;5089126;28;20408;-75
2023/05/10 04:13:36;;;;;;;3.05;1.00;;;;;;;15.81;83.21;99868.72;5077978;28;20420;-75
2023/05/10 04:16:02;;;;;;;3.58;1.05;;;;;;;15.86;83.02;99866.75;5090984;28;20393;-75
2023/05/10 04:18:27;;;;;;;1.77;1.07;;;;;;;15.89;82.92;99866.16;5062319;28;20425;-75
2023/05/10 04:20:52;;;;;;;2.00;1.10;;;;;;;15.93;83.01;99866.38;5072515;28;20399;-75
2023/05/10 04:23:18;;;;;;;1.13;1.03;;;;;;;16.00;82.39;99875.03;5070136;28;20498;-75
2023/05/10 04:25:43;;;;;;;1.27;1.27;;;;;;;16.01;82.36;99874.72;5074101;28;20810;-75
2023/05/10 04:28:08;;;;;;;1.37;1.10;;;;;;;15.98;82.76;99871.75;5075964;28;20400;-76
2023/05/10 04:30:34;;;;;;;1.23;1.17;;;;;;;16.02;82.82;99881.00;5085485;28;20694;-76
2023/05/10 04:33:00;;;;;;;1.60;1.20;;;;;;;16.10;82.45;99880.34;5082785;28;20510;-76
2023/05/10 04:35:25;;;;;;;1.20;1.20;;;;;;;16.18;81.82;99879.69;5077179;28;20408;-76
2023/05/10 04:37:51;;;;;;;2.58;1.20;;;;;;;16.13;82.14;99879.75;5064479;28;20409;-77
2023/05/10 04:40:16;;;;;;;1.23;1.00;;;;;;;16.17;82.08;99882.72;5062352;28;20419;-77
2023/05/10 04:42:43;;;;;;;1.45;1.35;;;;;;;16.19;81.81;99884.03;5072431;28;20421;-76
2023/05/10 04:45:09;;;;;;;3.17;1.50;;;;;;;16.17;82.12;99880.78;5068543;28;21429;-75
2023/05/10 04:47:34;;;;;;;4.07;1.60;;;;;;;16.12;82.37;99880.88;5072962;28;20399;-76
2023/05/10 04:50:00;;;;;;;2.13;1.60;;;;;;;16.08;82.37;99882.56;5078844;28;20716;-76
2023/05/10 04:52:25;;;;;;;2.67;1.70;;;;;;;16.08;82.45;99883.38;5071204;28;20404;-77
2023/05/10 04:54:51;;;;;;;2.83;2.55;;;;;;;16.16;82.06;99887.38;5074403;28;20423;-76
2023/05/10 04:57:16;;;;;;;5.60;2.43;;;;;;;16.17;81.83;99882.72;5076275;28;20424;-76
2023/05/10 04:59:42;;;;;;;2.10;2.00;;;;;;;16.10;82.31;99886.63;5062716;28;20424;-78
2023/05/10 05:02:07;;;;;;;2.27;1.60;;;;;;;16.05;82.91;99883.97;5070504;28;20412;-75
2023/05/10 05:04:32;;;;;;;1.63;1.53;;;;;;;15.90;83.15;99884.19;5089995;28;20477;-77
2023/05/10 05:06:58;;;;;;;1.90;1.80;;;;;;;15.86;83.40;99880.41;5071411;28;20876;-76
2023/05/10 05:09:23;;;;;;;2.00;1.90;;;;;;;15.89;83.76;99879.81;5083446;28;20414;-75
2023/05/10 05:11:48;;;;;;;2.73;1.47;;;;;;;15.96;83.37;99890.38;5090883;28;20393;-76
2023/05/10 05:14:13;;;;;;;1.80;1.60;;;;;;;15.99;83.34;99878.88;5080529;28;20392;-74
2023/05/10 05:16:39;;;;;;;2.17;1.60;;;;;;;15.99;83.01;99879.69;5092624;28;20430;-75
2023/05/10 05:19:04;;;;;;;2.30;1.70;;;;;;;16.05;83.19;99885.88;5088782;28;20409;-74
2023/05/10 05:21:30;;;;;;;2.03;1.20;;;;;;;16.10;82.54;99889.34;5083764;28;20433;-75
2023/05/10 05:23:55;;;;;;;7.80;1.73;;;;;;;16.04;82.90;99889.72;5091603;28;20914;-76
2023/05/10 05:26:21;;;;;;;1.90;1.70;;;;;;;16.01;83.01;99884.84;5080299;28;20411;-76
2023/05/10 05:28:48;;;;;;;3.90;1.43;;;;;;;15.99;83.03;99890.63;5093500;28;20391;-76
2023/05/10 05:31:13;;;;;;;2.38;1.80;;;;;;;16.06;82.75;99887.50;5077033;28;20894;-77
2023/05/10 05:33:38;;;;;;;2.10;1.43;;;;;;;16.06;82.67;99887.50;5094132;28;20424;-76
2023/05/10 05:36:05;;;;;;;2.23;1.47;;;;;;;16.07;82.68;99889.94;5090457;28;20546;-77
2023/05/10 05:38:30;;;;;;;1.40;1.30;;;;;;;16.10;82.36;99894.03;5063663;28;20397;-75
2023/05/10 05:40:56;;;;;;;3.50;1.47;;;;;;;16.10;81.99;99900.28;5080661;28;20488;-75
2023/05/10 05:43:27;;;;;;;1.40;1.30;;;;;;;16.16;81.47;99909.25;5055826;28;20821;-75
2023/05/10 05:45:53;;;;;;;1.33;1.23;;;;;;;16.19;81.69;99899.63;5084563;28;20407;-77
2023/05/10 05:48:19;;;;;;;1.33;1.20;;;;;;;16.22;81.35;99902.59;5055422;28;20745;-75
2023/05/10 05:50:45;;;;;;;1.40;1.00;;;;;;;16.12;81.40;99910.94;5085932;28;20400;-75
2023/05/10 05:53:10;;;;;;;1.13;1.02;;;;;;;16.13;81.49;99918.03;5085975;28;20416;-74
2023/05/10 05:55:36;;;;;;;1.10;1.10;;;;;;;16.08;81.40;99924.38;5084790;28;20396;-74
2023/05/10 05:58:01;;;;;;;1.00;1.00;;;;;;;16.08;81.63;99932.56;5091559;28;20414;-74
2023/05/10 06:00:26;;;;;;;1.50;0.97;;;;;;;16.17;81.06;99927.25;5089858;28;20462;-74
2023/05/10 06:02:52;;;;;;;1.00;1.00;;;;;;;16.27;80.98;99932.56;5084594;28;20483;-74
2023/05/10 06:05:17;;;;;;;0.87;0.87;;;;;;;16.24;80.72;99941.38;5079496;28;20437;-75
2023/05/10 06:07:42;;;;;;;1.60;1.00;;;;;;;16.28;80.60;99941.59;5090908;28;20386;-74
2023/05/10 06:10:08;;;;;;;1.33;1.20;;;;;;;16.29;80.72;99946.78;5093567;28;20789;-74
2023/05/10 06:12:34;;;;;;;1.50;1.00;;;;;;;16.30;80.74;99948.41;5082635;28;20405;-74
2023/05/10 06:14:59;;;;;;;1.03;1.03;;;;;;;16.39;80.32;99943.91;5093405;28;20473;-74
2023/05/10 06:17:25;;;;;;;1.60;1.50;;;;;;;16.37;80.62;99948.03;5092192;28;20378;-73
2023/05/10 06:19:50;;;;;;;1.23;1.20;;;;;;;16.33;80.94;99950.56;5093121;28;20390;-74
2023/05/10 06:22:16;;;;;;;1.10;1.10;;;;;;;16.33;81.50;99955.22;5083861;28;20417;-74
2023/05/10 06:24:41;;;;;;;1.33;1.23;;;;;;;16.50;80.70;99958.22;5092028;28;20447;-75
2023/05/10 06:27:07;;;;;;;2.93;1.47;;;;;;;16.57;80.53;99958.72;5090889;28;20439;-74
2023/05/10 06:29:32;;;;;;;1.27;1.13;;;;;;;16.60;80.45;99952.63;5092207;28;20390;-75
2023/05/10 06:31:58;;;;;;;2.00;1.20;;;;;;;16.61;80.65;99948.81;5066575;28;20400;-74
2023/05/10 06:34:23;;;;;;;1.45;1.30;;;;;;;16.64;80.66;99953.69;5093034;28;20443;-75
2023/05/10 06:36:49;;;;;;;1.63;1.20;;;;;;;16.69;80.43;99950.06;5092854;28;20383;-74
2023/05/10 06:39:14;;;;;;;1.47;1.40;;;;;;;16.62;80.37;99953.19;5080680;28;20391;-75
2023/05/10 06:41:39;;;;;;;1.23;1.23;;;;;;;16.58;80.75;99961.16;5087066;28;20477;-74
2023/05/10 06:44:04;;;;;;;3.60;1.40;;;;;;;16.65;80.56;99960.78;5092993;28;20737;-74
2023/05/10 06:46:30;;;;;;;2.47;0.90;;;;;;;16.66;80.31;99959.69;5085307;28;20392;-74
2023/05/10 06:48:55;;;;;;;1.63;1.30;;;;;;;16.72;80.30;99957.69;5072597;28;20475;-74
2023/05/10 06:51:21;;;;;;;3.47;1.20;;;;;;;16.81;79.86;99964.09;5088344;28;20428;-74
2023/05/10 06:53:46;;;;;;;1.25;1.15;;;;;;;16.93;79.40;99967.19;5088851;28;20394;-75
2023/05/10 06:56:11;;;;;;;1.07;1.07;;;;;;;16.94;79.78;99974.28;5083565;28;20758;-74
2023/05/10 06:58:37;;;;;;;1.35;1.00;;;;;;;17.01;79.43;99981.00;5083347;28;20474;-74
2023/05/10 07:01:04;;;;;;;1.10;0.80;;;;;;;17.13;78.70;99975.88;5088702;28;20452;-73
2023/05/10 07:03:30;;;;;;;2.40;0.98;;;;;;;17.17;78.21;99975.28;5092099;28;20417;-74
2023/05/10 07:06:03;;;;;;;1.40;0.80;;;;;;;17.09;78.61;99977.56;5092211;28;20718;-74
2023/05/10 07:08:38;;;;;;;2.10;0.90;;;;;;;17.03;78.50;99975.22;5091279;28;20455;-75
2023/05/10 07:11:06;;;;;;;0.97;0.67;;;;;;;17.02;77.60;99973.63;5069947;28;20442;-75
2023/05/10 07:13:32;;;;;;;0.80;0.50;;;;;;;16.91;78.14;99983.91;5086240;28;20390;-74
2023/05/10 07:16:00;;;;;;;0.80;0.50;;;;;;;16.93;77.94;99983.59;5074095;28;20896;-74
2023/05/10 07:18:25;;;;;;;0.85;0.50;;;;;;;16.92;77.48;99985.53;5091046;28;20385;-74
2023/05/10 07:20:51;;;;;;;2.45;0.40;;;;;;;16.99;77.32;99983.22;5087823;28;20419;-74
2023/05/10 07:23:17;;;;;;;0.40;0.40;;;;;;;17.08;76.29;99986.91;5081104;28;20409;-73
2023/05/10 07:25:47;;;;;;;0.30;0.27;;;;;;;16.96;76.10;99983.00;5073924;28;20914;-75
2023/05/10 07:28:14;;;;;;;0.50;0.50;;;;;;;16.82;76.43;99991.19;5090775;28;20393;-76
2023/05/10 07:30:39;;;;;;;1.67;0.28;;;;;;;16.94;76.47;99982.50;5076014;28;20937;-75
2023/05/10 07:33:04;;;;;;;0.87;0.70;;;;;;;17.04;76.28;99987.81;5080885;28;20421;-74
2023/05/10 07:35:29;;;;;;;0.63;0.37;;;;;;;17.17;75.66;99988.97;5091451;28;20892;-74
2023/05/10 07:37:55;;;;;;;0.90;0.30;;;;;;;17.38;74.83;99988.31;5091458;28;20393;-73
2023/05/10 07:40:20;;;;;;;0.40;0.37;;;;;;;17.43;74.25;99995.63;5091038;28;20892;-75
2023/05/10 07:42:46;;;;;;;1.00;0.90;;;;;;;17.41;74.15;99995.94;5062302;28;20426;-73
2023/05/10 07:45:11;;;;;;;0.30;0.30;;;;;;;17.45;74.10;100002.41;5082037;28;20403;-73
2023/05/10 07:47:36;;;;;;;0.50;0.37;;;;;;;17.45;74.19;100002.41;5086829;28;20387;-76
2023/05/10 07:50:01;;;;;;;0.93;0.40;;;;;;;17.37;74.46;100000.38;5087833;28;20392;-76
2023/05/10 07:52:27;;;;;;;0.90;0.43;;;;;;;17.39;74.16;100003.63;5082371;28;20423;-75
2023/05/10 07:54:53;;;;;;;0.40;0.40;;;;;;;17.36;73.90;100006.97;5082001;28;20410;-76
2023/05/10 07:57:18;;;;;;;1.42;0.40;;;;;;;17.19;74.33;100003.97;5071675;28;20541;-74
2023/05/10 07:59:44;;;;;;;0.90;0.40;;;;;;;17.12;74.84;100009.03;5074438;28;20483;-74
2023/05/10 08:02:09;;;;;;;1.98;0.40;;;;;;;17.06;75.37;100004.75;5056467;28;20916;-76
2023/05/10 08:04:35;;;;;;;0.57;0.57;;;;;;;17.16;75.07;100001.03;5053997;28;20410;-76
2023/05/10 08:07:00;;;;;;;4.10;0.60;;;;;;;17.31;74.72;100014.47;5077675;28;20390;-76
2023/05/10 08:09:25;;;;;;;0.53;0.20;;;;;;;17.45;74.57;100013.38;5075694;28;20480;-75
2023/05/10 08:11:51;;;;;;;1.00;0.40;;;;;;;17.63;73.10;100014.47;5055967;28;20910;-75
2023/05/10 08:14:20;;;;;;;0.90;0.30;;;;;;;17.75;72.38;100009.31;5077692;28;22828;-73
2023/05/10 08:16:45;;;;;;;0.30;0.20;;;;;;;17.82;71.95;100012.47;5082148;28;20858;-75
2023/05/10 08:19:10;;;;;;;1.20;0.40;;;;;;;17.89;71.84;100018.34;5059955;28;20415;-76
2023/05/10 08:21:36;;;;;;;1.00;0.40;;;;;;;17.90;70.76;100020.00;5076550;28;20496;-76
2023/05/10 08:24:01;;;;;;;1.10;0.27;;;;;;;17.82;71.18;100020.69;5084933;28;20401;-75
2023/05/10 08:26:26;;;;;;;1.00;0.60;;;;;;;17.78;71.40;100018.88;5085892;28;20494;-75
2023/05/10 08:28:52;;;;;;;0.70;0.57;;;;;;;17.81;71.11;100019.06;5085465;28;20433;-75
2023/05/10 08:31:17;;;;;;;2.50;0.40;;;;;;;17.84;70.44;100018.47;5079756;28;20392;-75
2023/05/10 08:33:43;;;;;;;2.17;0.40;;;;;;;17.86;69.91;100018.97;5072105;28;20807;-75
2023/05/10 08:36:08;;;;;;;1.30;0.30;;;;;;;17.83;70.13;100016.84;5081626;28;20418;-79
2023/05/10 08:38:34;;;;;;;0.67;0.40;;;;;;;18.08;69.74;100021.00;5082761;28;20866;-75
2023/05/10 08:41:02;;;;;;;2.80;0.40;;;;;;;18.25;69.08;100025.88;5087386;28;20472;-76
2023/05/10 08:43:31;;;;;;;0.20;0.20;;;;;;;18.40;68.77;100014.59;5063263;28;20844;-74
2023/05/10 08:45:59;;;;;;;1.50;0.30;;;;;;;18.46;68.65;100014.16;5073531;28;20745;-75
2023/05/10 08:48:24;;;;;;;0.35;0.35;;;;;;;18.50;68.23;100022.63;5071951;28;20418;-75
2023/05/10 08:50:52;;;;;;;0.82;0.30;;;;;;;18.70;67.17;100018.63;5089675;28;20457;-75
2023/05/10 08:53:19;;;;;;;0.20;0.20;;;;;;;18.53;67.70;100030.25;5083634;28;20406;-75
2023/05/10 08:55:44;;;;;;;0.50;0.50;;;;;;;18.37;67.51;100035.22;5082096;28;20443;-74
2023/05/10 08:58:10;;;;;;;0.20;0.20;;;;;;;18.50;66.80;100030.88;5090632;28;20394;-72
2023/05/10 09:00:36;;;;;;;5.70;0.37;;;;;;;18.24;66.80;100036.06;5070383;28;20745;-75
2023/05/10 09:03:03;;;;;;;1.17;0.30;;;;;;;18.11;67.46;100032.16;5069882;28;20888;-75
2023/05/10 09:05:28;;;;;;;1.00;0.10;;;;;;;18.04;67.90;100039.19;5079164;28;20435;-75
2023/05/10 09:07:54;;;;;;;0.30;0.25;;;;;;;18.06;68.16;100040.50;5090354;28;20382;-75
2023/05/10 09:10:20;;;;;;;0.30;0.20;;;;;;;17.87;67.72;100049.94;5090496;28;20386;-74
2023/05/10 09:12:45;;;;;;;0.30;0.30;;;;;;;17.67;66.66;100047.56;5074266;28;20417;-75
2023/05/10 09:15:11;;;;;;;0.40;0.20;;;;;;;17.62;66.04;100051.19;5090385;28;20390;-75
2023/05/10 09:17:40;;;;;;;0.30;0.30;;;;;;;17.56;66.19;100055.16;5090251;28;20386;-74
2023/05/10 09:20:06;;;;;;;0.20;0.20;;;;;;;17.53;67.10;100055.72;5090416;28;20451;-74
2023/05/10 09:22:31;;;;;;;0.98;0.35;;;;;;;17.47;67.02;100060.47;5086201;28;20411;-75
2023/05/10 09:25:10;;;;;;;0.70;0.30;;;;;;;17.40;67.64;100049.09;5090400;28;20489;-75
2023/05/10 09:27:36;;;;;;;0.80;0.40;;;;;;;17.37;67.66;100054.34;5090366;28;20466;-75
2023/05/10 09:30:03;;;;;;;0.50;0.20;;;;;;;17.43;67.30;100062.19;5086387;28;20386;-75
2023/05/10 09:32:39;;;;;;;3.75;0.50;;;;;;;17.49;67.20;100055.50;5085693;28;20431;-75
2023/05/10 09:35:12;;;;;;;0.90;0.30;;;;;;;17.58;67.13;100064.69;5090351;28;20386;-75
2023/05/10 09:37:41;;;;;;;0.90;0.25;;;;;;;17.88;66.90;100068.81;5072167;28;20397;-75
2023/05/10 09:40:10;;;;;;;1.20;0.25;;;;;;;18.09;65.98;100058.28;5051366;28;20928;-73
2023/05/10 09:42:36;;;;;;;0.40;0.40;;;;;;;18.26;65.86;100061.22;5065704;28;20416;-72
2023/05/10 09:45:03;;;;;;;1.37;0.63;;;;;;;18.57;64.56;100064.19;5076921;28;20380;-73
2023/05/10 09:47:29;;;;;;;2.30;0.27;;;;;;;18.84;63.35;100066.88;5084930;28;20382;-74
2023/05/10 09:49:57;;;;;;;0.40;0.30;;;;;;;18.93;63.11;100070.53;5088936;28;20791;-74
2023/05/10 09:52:23;;;;;;;1.13;0.43;;;;;;;18.98;61.80;100075.06;5085488;28;20925;-73
2023/05/10 09:54:54;;;;;;;1.33;0.40;;;;;;;18.74;61.17;100074.53;5062057;28;20422;-75
2023/05/10 09:57:21;;;;;;;2.23;0.60;;;;;;;18.94;60.64;100074.88;5090117;28;20378;-74
2023/05/10 09:59:47;;;;;;;0.40;0.40;;;;;;;19.26;60.29;100071.13;5074013;28;20465;-74
2023/05/10 10:02:13;;;;;;;0.70;0.70;;;;;;;19.89;58.85;100067.34;5078626;28;20499;-74
2023/05/10 10:04:40;;;;;;;1.30;0.50;;;;;;;19.45;59.41;100074.53;5083267;28;20869;-74
2023/05/10 10:07:06;;;;;;;1.20;0.60;;;;;;;19.26;60.55;100075.81;5093511;28;20382;-75
2023/05/10 10:09:32;;;;;;;1.37;0.40;;;;;;;19.29;60.45;100086.97;5092103;28;20398;-74
2023/05/10 10:11:59;;;;;;;0.57;0.40;;;;;;;19.50;58.77;100090.06;5093514;28;20386;-75
2023/05/10 10:14:25;;;;;;;0.45;0.30;;;;;;;19.75;58.23;100083.94;5078849;28;20415;-72
2023/05/10 10:16:51;;;;;;;2.90;0.50;;;;;;;20.42;56.32;100086.50;5086922;28;20394;-74
2023/05/10 10:19:18;;;;;;;1.55;0.52;;;;;;;20.38;55.07;100086.38;5087690;28;20393;-73
2023/05/10 10:21:43;;;;;;;0.45;0.45;;;;;;;20.50;54.75;100088.50;5093169;28;20378;-75
2023/05/10 10:24:09;;;;;;;2.03;0.50;;;;;;;21.32;53.58;100080.22;5084365;28;20427;-74
2023/05/10 10:26:37;;;;;;;1.10;0.70;;;;;;;21.72;52.21;100076.09;5075315;28;20386;-75
2023/05/10 10:29:39;;;;;;;1.00;0.80;;;;;;;21.20;52.34;100085.56;5075012;28;20382;-74
2023/05/10 10:32:29;;;;;;;3.35;0.90;;;;;;;20.70;53.65;100082.41;5060911;28;20752;-75
2023/05/10 10:34:56;;;;;;;3.00;0.88;;;;;;;20.79;53.02;100082.41;5085930;28;20406;-74
2023/05/10 10:37:21;;;;;;;3.10;1.13;;;;;;;20.59;53.55;100079.13;5075196;28;20402;-74
2023/05/10 10:39:48;;;;;;;1.20;0.80;;;;;;;20.38;54.77;100078.13;5092920;28;20857;-74
2023/05/10 10:42:13;;;;;;;2.00;0.88;;;;;;;19.99;54.35;100086.34;5093118;28;20782;-74
2023/05/10 10:44:40;;;;;;;2.23;0.97;;;;;;;19.85;54.71;100080.94;5074813;28;20474;-74
2023/05/10 10:47:11;;;;;;;0.82;0.75;;;;;;;20.20;53.77;100077.19;5082874;28;20473;-74
2023/05/10 10:49:42;;;;;;;1.73;0.73;;;;;;;20.50;53.59;100072.81;5081627;28;20414;-74
2023/05/10 10:52:30;;;;;;;1.25;0.80;;;;;;;21.01;51.92;100083.06;5074663;28;20390;-75
2023/05/10 10:55:22;;;;;;;0.60;0.60;;;;;;;20.78;52.23;100083.56;5075978;28;20875;-74
2023/05/10 10:57:51;;;;;;;3.00;0.93;;;;;;;20.46;52.77;100082.00;5087365;28;20485;-74
2023/05/10 11:00:28;;;;;;;1.88;0.73;;;;;;;20.09;53.04;100086.03;5092687;28;20403;-74
2023/05/10 11:02:56;;;;;;;1.70;0.82;;;;;;;19.90;53.65;100091.78;5090811;28;20410;-74
2023/05/10 11:05:27;;;;;;;1.40;0.70;;;;;;;19.51;54.41;100091.69;5092393;28;20382;-74
2023/05/10 11:07:57;;;;;;;1.40;0.80;;;;;;;19.22;55.27;100094.84;5088413;28;20459;-74
2023/05/10 11:10:23;;;;;;;1.70;0.68;;;;;;;19.12;55.52;100087.66;5084759;28;20828;-74
2023/05/10 11:13:02;;;;;;;2.97;0.80;;;;;;;19.18;55.73;100091.09;5082505;28;20400;-74
2023/05/10 11:15:36;;;;;;;1.52;0.70;;;;;;;19.04;55.87;100082.06;5071805;28;20412;-74
2023/05/10 11:18:29;;;;;;;4.00;0.73;;;;;;;19.18;56.19;100088.34;5087394;28;20450;-74
2023/05/10 11:21:00;;;;;;;1.50;0.57;;;;;;;19.23;56.76;100087.41;5092327;28;20511;-74
2023/05/10 11:23:43;;;;;;;1.38;0.60;;;;;;;19.25;56.91;100085.16;5080857;28;20423;-74
2023/05/10 11:26:09;;;;;;;1.75;0.50;;;;;;;19.37;56.48;100082.66;5072854;28;20529;-73
2023/05/10 11:28:40;;;;;;;1.20;0.50;;;;;;;19.62;54.98;100080.16;5075313;28;20507;-74
2023/05/10 11:31:06;;;;;;;2.40;0.30;;;;;;;19.77;54.40;100078.94;5081967;28;20468;-74
2023/05/10 11:33:42;;;;;;;1.63;0.40;;;;;;;19.57;53.00;100084.94;5079402;28;20397;-74